createdAt,value
2024-03-25T00:00:47.823Z,99009.58
2024-03-25T00:03:38.254Z,99011.92
2024-03-25T00:06:10.589Z,99015.46
2024-03-25T00:08:40.925Z,99013.85
2024-03-25T00:11:11.364Z,99013.61
2024-03-25T00:13:41.839Z,99015.15
2024-03-25T00:16:12.392Z,99013.00
2024-03-25T00:18:42.807Z,99008.45
2024-03-25T00:21:13.131Z,99009.32
2024-03-25T00:23:43.620Z,99005.13
2024-03-25T00:26:14.010Z,99006.71
2024-03-25T00:28:44.627Z,99004.35
2024-03-25T00:31:15.021Z,99005.88
2024-03-25T00:33:45.288Z,99000.02
2024-03-25T00:36:16.288Z,99000.95
2024-03-25T00:38:46.663Z,98999.13
2024-03-25T00:41:17.317Z,98997.16
2024-03-25T00:43:47.762Z,98997.85
2024-03-25T00:46:18.140Z,98996.32
2024-03-25T00:48:48.676Z,98995.83
2024-03-25T00:51:19.245Z,98992.67
2024-03-25T00:53:49.870Z,98991.53
2024-03-25T00:56:20.343Z,98986.23
2024-03-25T00:58:51.443Z,98987.37
2024-03-25T01:01:20.263Z,98985.58
2024-03-25T01:03:50.509Z,98986.93
2024-03-25T01:06:20.876Z,98982.23
2024-03-25T01:08:51.835Z,98983.35
2024-03-25T01:11:22.251Z,98981.45
2024-03-25T01:13:52.701Z,98979.60
2024-03-25T01:16:23.159Z,98980.35
2024-03-25T01:18:53.412Z,98980.63
2024-03-25T01:21:23.674Z,98977.92
2024-03-25T01:23:54.598Z,98982.20
2024-03-25T01:26:25.197Z,98982.61
2024-03-25T01:28:55.596Z,98980.91
2024-03-25T01:31:26.125Z,98981.94
2024-03-25T01:33:56.579Z,98979.73
2024-03-25T01:36:27.481Z,98980.05
2024-03-25T01:38:57.946Z,98978.86
2024-03-25T01:41:29.329Z,98978.50
2024-03-25T01:43:59.531Z,98979.98
2024-03-25T01:46:30.660Z,98977.78
2024-03-25T01:48:59.450Z,98978.20
2024-03-25T01:51:30.633Z,98980.68
2024-03-25T01:54:05.079Z,98980.27
2024-03-25T01:56:37.646Z,98980.14
2024-03-25T01:59:08.033Z,98980.48
2024-03-25T02:01:38.556Z,98979.75
2024-03-25T02:04:09.088Z,98980.66
2024-03-25T02:06:41.114Z,98976.64
2024-03-25T02:09:13.344Z,98972.88
2024-03-25T02:11:44.516Z,98970.10
2024-03-25T02:14:15.201Z,98967.54
2024-03-25T02:16:45.594Z,98969.86
2024-03-25T02:19:16.714Z,98972.77
2024-03-25T02:21:47.851Z,98969.42
2024-03-25T02:24:16.673Z,98967.62
2024-03-25T02:26:47.222Z,98969.02
2024-03-25T02:29:17.657Z,98968.25
2024-03-25T02:31:50.405Z,98968.33
2024-03-25T02:34:31.958Z,98969.35
2024-03-25T02:37:22.641Z,98970.50
2024-03-25T02:39:54.154Z,98973.96
2024-03-25T02:42:26.542Z,98976.43
2024-03-25T02:44:57.940Z,98977.34
2024-03-25T02:47:28.675Z,98978.02
2024-03-25T02:49:58.955Z,98981.37
2024-03-25T02:52:30.306Z,98984.13
2024-03-25T02:55:01.394Z,98987.17
2024-03-25T02:57:30.174Z,98990.20
2024-03-25T03:00:00.654Z,98989.95
2024-03-25T03:02:31.104Z,98993.39
2024-03-25T03:05:01.407Z,98995.66
2024-03-25T03:07:31.728Z,98999.05
2024-03-25T03:10:02.588Z,99002.48
2024-03-25T03:12:33.093Z,99005.16
2024-03-25T03:15:03.818Z,99004.30
2024-03-25T03:17:34.134Z,99004.02
2024-03-25T03:20:04.875Z,99005.57
2024-03-25T03:22:36.227Z,99007.94
2024-03-25T03:25:11.150Z,99006.61
2024-03-25T03:27:41.493Z,99005.41
2024-03-25T03:30:14.103Z,99008.28
2024-03-25T03:32:44.386Z,99011.11
2024-03-25T03:35:15.801Z,99015.23
2024-03-25T03:37:46.278Z,99013.08
2024-03-25T03:40:16.849Z,99016.92
2024-03-25T03:42:47.218Z,99015.40
2024-03-25T03:45:18.418Z,99016.41
2024-03-25T03:47:48.985Z,99020.44
2024-03-25T03:50:19.461Z,99020.69
2024-03-25T03:52:49.783Z,99024.98
2024-03-25T03:55:20.257Z,99024.49
2024-03-25T03:57:50.629Z,99023.58
2024-03-25T04:00:21.142Z,99022.34
2024-03-25T04:02:51.891Z,99031.09
2024-03-25T04:05:29.456Z,99030.62
2024-03-25T04:07:59.883Z,99028.46
2024-03-25T04:10:30.313Z,99033.85
2024-03-25T04:13:00.670Z,99038.62
2024-03-25T04:15:33.518Z,99040.75
2024-03-25T04:18:04.367Z,99045.56
2024-03-25T04:20:39.540Z,99045.96
2024-03-25T04:23:10.229Z,99047.21
2024-03-25T04:25:40.652Z,99050.30
2024-03-25T04:28:11.169Z,99050.84
2024-03-25T04:30:41.473Z,99055.29
2024-03-25T04:33:12.002Z,99059.54
2024-03-25T04:35:42.519Z,99062.79
2024-03-25T04:38:13.061Z,99068.60
2024-03-25T04:40:43.290Z,99069.27
2024-03-25T04:43:13.630Z,99069.52
2024-03-25T04:45:44.141Z,99072.77
2024-03-25T04:48:14.493Z,99076.50
2024-03-25T04:50:44.970Z,99076.20
2024-03-25T04:53:15.329Z,99081.95
2024-03-25T04:55:45.765Z,99087.27
2024-03-25T04:58:16.144Z,99085.83
2024-03-25T05:00:46.466Z,99094.11
2024-03-25T05:03:16.987Z,99097.81
2024-03-25T05:05:49.426Z,99095.66
2024-03-25T05:08:20.210Z,99102.71
2024-03-25T05:10:50.611Z,99106.55
2024-03-25T05:13:20.967Z,99106.00
2024-03-25T05:15:54.598Z,99111.10
2024-03-25T05:18:24.826Z,99114.56
2024-03-25T05:20:55.395Z,99116.52
2024-03-25T05:23:25.721Z,99119.16
2024-03-25T05:25:56.236Z,99126.59
2024-03-25T05:28:26.772Z,99126.61
2024-03-25T05:30:57.251Z,99130.04
2024-03-25T05:33:27.621Z,99133.88
2024-03-25T05:35:58.025Z,99134.69
2024-03-25T05:38:28.665Z,99137.95
2024-03-25T05:40:59.014Z,99141.09
2024-03-25T05:43:29.625Z,99146.02
2024-03-25T05:45:59.929Z,99146.52
2024-03-25T05:48:30.379Z,99150.38
2024-03-25T05:51:03.420Z,99153.33
2024-03-25T05:53:34.602Z,99158.30
2024-03-25T05:56:06.513Z,99161.30
2024-03-25T05:58:37.624Z,99166.37
2024-03-25T06:01:06.574Z,99167.29
2024-03-25T06:03:36.860Z,99170.30
2024-03-25T06:06:07.265Z,99171.79
2024-03-25T06:08:37.470Z,99176.31
2024-03-25T06:11:07.900Z,99182.39
2024-03-25T06:13:38.144Z,99188.95
2024-03-25T06:16:10.065Z,99190.52
2024-03-25T06:18:40.622Z,99191.15
2024-03-25T06:21:11.029Z,99192.85
2024-03-25T06:23:41.625Z,99197.60
2024-03-25T06:26:12.143Z,99201.87
2024-03-25T06:28:42.502Z,99207.73
2024-03-25T06:31:12.945Z,99211.73
2024-03-25T06:33:43.322Z,99215.15
2024-03-25T06:36:13.819Z,99220.96
2024-03-25T06:38:44.482Z,99225.71
2024-03-25T06:41:14.939Z,99228.45
2024-03-25T06:43:45.277Z,99229.98
2024-03-25T06:46:15.545Z,99232.54
2024-03-25T06:48:45.979Z,99236.41
2024-03-25T06:51:16.412Z,99244.90
2024-03-25T06:53:46.793Z,99252.11
2024-03-25T06:56:17.395Z,99254.63
2024-03-25T06:58:47.667Z,99258.73
2024-03-25T07:01:18.255Z,99261.77
2024-03-25T07:03:49.051Z,99270.05
2024-03-25T07:06:19.769Z,99269.04
2024-03-25T07:08:50.197Z,99269.11
2024-03-25T07:11:20.823Z,99268.60
2024-03-25T07:13:50.219Z,99272.27
2024-03-25T07:16:20.492Z,99276.80
2024-03-25T07:18:50.906Z,99280.14
2024-03-25T07:21:21.418Z,99285.95
2024-03-25T07:23:52.050Z,99288.10
2024-03-25T07:26:22.695Z,99289.40
2024-03-25T07:28:52.936Z,99290.05
2024-03-25T07:31:23.313Z,99291.97
2024-03-25T07:33:53.750Z,99294.61
2024-03-25T07:36:24.405Z,99293.96
2024-03-25T07:38:54.860Z,99301.42
2024-03-25T07:41:25.980Z,99308.51
2024-03-25T07:43:57.138Z,99315.06
2024-03-25T07:46:28.269Z,99319.22
2024-03-25T07:48:58.680Z,99322.23
2024-03-25T07:51:30.883Z,99326.34
2024-03-25T07:54:01.478Z,99327.23
2024-03-25T07:56:33.034Z,99329.72
2024-03-25T07:59:03.730Z,99334.77
2024-03-25T08:01:34.291Z,99340.31
2024-03-25T08:04:04.981Z,99342.52
2024-03-25T08:06:35.523Z,99343.19
2024-03-25T08:09:05.920Z,99349.23
2024-03-25T08:11:36.341Z,99351.62
2024-03-25T08:14:07.118Z,99350.05
2024-03-25T08:16:38.339Z,99352.70
2024-03-25T08:19:08.719Z,99358.09
2024-03-25T08:21:39.072Z,99359.13
2024-03-25T08:24:09.580Z,99360.02
2024-03-25T08:26:40.075Z,99364.82
2024-03-25T08:29:10.595Z,99369.95
2024-03-25T08:31:41.101Z,99371.75
2024-03-25T08:34:11.748Z,99372.30
2024-03-25T08:36:42.091Z,99372.55
2024-03-25T08:39:12.950Z,99369.71
2024-03-25T08:41:41.982Z,99376.35
2024-03-25T08:44:12.547Z,99376.89
2024-03-25T08:46:42.790Z,99381.57
2024-03-25T08:49:13.252Z,99381.89
2024-03-25T08:51:43.602Z,99387.05
2024-03-25T08:54:13.835Z,99396.19
2024-03-25T08:56:44.717Z,99396.09
2024-03-25T08:59:16.392Z,99396.25
2024-03-25T09:01:46.780Z,99400.44
2024-03-25T09:04:27.612Z,99404.98
2024-03-25T09:06:58.924Z,99403.83
2024-03-25T09:09:29.474Z,99402.50
2024-03-25T09:11:59.925Z,99403.04
2024-03-25T09:14:30.543Z,99403.96
2024-03-25T09:17:00.879Z,99411.39
2024-03-25T09:19:31.425Z,99415.53
2024-03-25T09:22:01.888Z,99417.11
2024-03-25T09:24:33.894Z,99419.00
2024-03-25T09:27:04.571Z,99418.09
2024-03-25T09:29:34.953Z,99422.12
2024-03-25T09:32:07.356Z,99426.18
2024-03-25T09:34:37.610Z,99425.95
2024-03-25T09:37:08.188Z,99438.09
2024-03-25T09:39:38.450Z,99441.09
2024-03-25T09:42:15.236Z,99441.33
2024-03-25T09:44:45.958Z,99442.52
2024-03-25T09:47:17.138Z,99445.42
2024-03-25T09:49:48.706Z,99447.19
2024-03-25T09:52:19.704Z,99455.06
2024-03-25T09:54:48.612Z,99453.95
2024-03-25T09:57:19.495Z,99458.65
2024-03-25T09:59:50.308Z,99464.21
2024-03-25T10:02:19.701Z,99471.85
2024-03-25T10:04:50.908Z,99472.87
2024-03-25T10:07:26.111Z,99472.66
2024-03-25T10:09:57.201Z,99475.20
2024-03-25T10:12:26.165Z,99477.88
2024-03-25T10:14:56.612Z,99480.60
2024-03-25T10:17:27.120Z,99483.73
2024-03-25T10:19:57.367Z,99485.30
2024-03-25T10:22:28.062Z,99486.99
2024-03-25T10:24:58.505Z,99483.45
2024-03-25T10:27:29.208Z,99486.48
2024-03-25T10:30:00.742Z,99490.34
2024-03-25T10:32:34.294Z,99486.77
2024-03-25T10:35:07.120Z,99490.36
2024-03-25T10:37:39.563Z,99492.69
2024-03-25T10:40:12.673Z,99488.97
2024-03-25T10:42:45.355Z,99493.25
2024-03-25T10:45:16.267Z,99494.77
2024-03-25T10:47:46.842Z,99496.98
2024-03-25T10:50:20.420Z,99497.06
2024-03-25T10:52:52.152Z,99493.16
2024-03-25T10:55:23.000Z,99495.86
2024-03-25T10:57:54.989Z,99495.67
2024-03-25T11:00:26.035Z,99496.16
2024-03-25T11:02:57.005Z,99496.31
2024-03-25T11:05:27.472Z,99496.47
2024-03-25T11:07:58.182Z,99500.89
2024-03-25T11:10:32.584Z,99507.14
2024-03-25T11:13:03.121Z,99507.67
2024-03-25T11:15:41.191Z,99510.19
2024-03-25T11:18:14.928Z,99507.32
2024-03-25T11:20:46.297Z,99505.48
2024-03-25T11:23:18.557Z,99506.11
2024-03-25T11:25:57.215Z,99508.84
2024-03-25T11:28:31.245Z,99506.70
2024-03-25T11:31:01.627Z,99503.42
2024-03-25T11:33:32.661Z,99503.06
2024-03-25T11:36:03.115Z,99497.98
2024-03-25T11:38:33.467Z,99500.58
2024-03-25T11:41:04.422Z,99503.11
2024-03-25T11:43:33.474Z,99502.64
2024-03-25T11:46:04.169Z,99500.63
2024-03-25T11:48:34.858Z,99498.70
2024-03-25T11:51:06.045Z,99498.21
2024-03-25T11:53:36.419Z,99498.45
2024-03-25T11:56:08.203Z,99498.46
2024-03-25T11:58:38.713Z,99497.87
2024-03-25T12:01:09.338Z,99502.12
2024-03-25T12:03:42.792Z,99502.63
2024-03-25T12:06:13.385Z,99503.28
2024-03-25T12:08:44.556Z,99500.43
2024-03-25T12:11:15.219Z,99504.95
2024-03-25T12:13:46.467Z,99505.02
2024-03-25T12:16:17.069Z,99506.21
2024-03-25T12:18:47.773Z,99504.05
2024-03-25T12:21:18.453Z,99509.45
2024-03-25T12:23:49.900Z,99510.45
2024-03-25T12:26:20.292Z,99512.35
2024-03-25T12:28:50.719Z,99515.41
2024-03-25T12:31:24.197Z,99516.02
2024-03-25T12:33:54.600Z,99514.23
2024-03-25T12:36:25.636Z,99514.62
2024-03-25T12:38:59.849Z,99517.64
2024-03-25T12:41:30.303Z,99517.79
2024-03-25T12:44:01.503Z,99525.81
2024-03-25T12:46:32.038Z,99535.97
2024-03-25T12:49:03.962Z,99544.45
2024-03-25T12:51:34.399Z,99548.38
2024-03-25T12:54:04.866Z,99545.14
2024-03-25T12:56:35.421Z,99550.60
2024-03-25T12:59:06.475Z,99553.00
2024-03-25T13:01:35.336Z,99555.67
2024-03-25T13:04:07.454Z,99561.21
2024-03-25T13:06:37.961Z,99563.98
2024-03-25T13:09:08.279Z,99560.29
2024-03-25T13:11:38.767Z,99565.46
2024-03-25T13:14:09.040Z,99560.83
2024-03-25T13:16:39.413Z,99555.75
2024-03-25T13:19:10.825Z,99558.08
2024-03-25T13:21:41.430Z,99560.50
2024-03-25T13:24:12.048Z,99563.93
2024-03-25T13:26:42.294Z,99566.16
2024-03-25T13:29:12.556Z,99563.56
2024-03-25T13:31:42.954Z,99566.42
2024-03-25T13:34:13.449Z,99565.56
2024-03-25T13:36:43.838Z,99569.42
2024-03-25T13:39:14.985Z,99574.55
2024-03-25T13:41:43.812Z,99574.54
2024-03-25T13:44:14.187Z,99575.86
2024-03-25T13:46:44.630Z,99579.73
2024-03-25T13:49:14.989Z,99583.43
2024-03-25T13:51:45.191Z,99589.45
2024-03-25T13:54:15.589Z,99595.14
2024-03-25T13:56:46.109Z,99609.16
2024-03-25T13:59:16.682Z,99613.53
2024-03-25T14:01:47.408Z,99622.28
2024-03-25T14:04:17.727Z,99627.59
2024-03-25T14:06:48.107Z,99635.29
2024-03-25T14:09:27.983Z,99638.77
2024-03-25T14:11:58.615Z,99640.41
2024-03-25T14:14:28.960Z,99625.93
2024-03-25T14:17:00.155Z,99611.71
2024-03-25T14:19:30.404Z,99609.29
2024-03-25T14:22:00.828Z,99616.39
2024-03-25T14:24:30.600Z,99618.77
2024-03-25T14:27:01.008Z,99615.85
2024-03-25T14:29:31.496Z,99611.30
2024-03-25T14:32:01.919Z,99606.53
2024-03-25T14:34:32.283Z,99610.12
2024-03-25T14:37:02.749Z,99612.98
2024-03-25T14:39:33.073Z,99614.27
2024-03-25T14:42:03.831Z,99611.08
2024-03-25T14:44:34.573Z,99613.81
2024-03-25T14:47:07.209Z,99619.77
2024-03-25T14:49:37.761Z,99621.95
2024-03-25T14:52:08.061Z,99619.68
2024-03-25T14:54:40.615Z,99618.26
2024-03-25T14:57:11.053Z,99627.13
2024-03-25T14:59:41.536Z,99624.36
2024-03-25T15:02:13.607Z,99624.92
2024-03-25T15:04:44.393Z,99624.55
2024-03-25T15:07:15.173Z,99626.63
2024-03-25T15:09:48.368Z,99631.30
2024-03-25T15:12:22.596Z,99632.10
2024-03-25T15:14:53.338Z,99629.88
2024-03-25T15:17:24.078Z,99632.38
2024-03-25T15:19:54.726Z,99631.38
2024-03-25T15:22:25.225Z,99631.11
2024-03-25T15:24:54.484Z,99629.48
2024-03-25T15:27:38.905Z,99633.73
2024-03-25T15:30:12.023Z,99633.40
2024-03-25T15:32:42.911Z,99634.50
2024-03-25T15:35:13.523Z,99634.82
2024-03-25T15:37:43.986Z,99633.58
2024-03-25T15:40:23.134Z,99640.10
2024-03-25T15:42:53.402Z,99644.11
2024-03-25T15:45:27.242Z,99644.52
2024-03-25T15:47:58.014Z,99652.13
2024-03-25T15:50:28.285Z,99651.71
2024-03-25T15:53:05.110Z,99654.58
2024-03-25T15:55:36.332Z,99655.20
2024-03-25T15:58:07.512Z,99653.45
2024-03-25T16:00:38.445Z,99656.10
2024-03-25T16:03:09.933Z,99654.35
2024-03-25T16:05:48.140Z,99656.91
2024-03-25T16:08:18.592Z,99663.27
2024-03-25T16:10:49.378Z,99666.02
2024-03-25T16:13:20.046Z,99668.47
2024-03-25T16:16:05.129Z,99677.11
2024-03-25T16:18:36.489Z,99678.71
2024-03-25T16:21:15.806Z,99683.40
2024-03-25T16:23:46.688Z,99684.34
2024-03-25T16:26:17.038Z,99681.09
2024-03-25T16:28:47.378Z,99680.85
2024-03-25T16:31:17.832Z,99681.89
2024-03-25T16:33:48.630Z,99681.56
2024-03-25T16:36:19.767Z,99682.90
2024-03-25T16:38:50.331Z,99689.52
2024-03-25T16:41:20.911Z,99691.07
2024-03-25T16:43:51.328Z,99694.23
2024-03-25T16:46:22.076Z,99695.07
2024-03-25T16:48:52.618Z,99693.80
2024-03-25T16:51:23.837Z,99698.91
2024-03-25T16:53:54.263Z,99700.88
2024-03-25T16:56:24.653Z,99706.13
2024-03-25T16:58:55.813Z,99698.95
2024-03-25T17:01:26.541Z,99704.70
2024-03-25T17:03:57.134Z,99700.48
2024-03-25T17:06:27.541Z,99705.56
2024-03-25T17:08:58.164Z,99708.61
2024-03-25T17:11:27.451Z,99707.26
2024-03-25T17:13:57.952Z,99708.44
2024-03-25T17:16:28.611Z,99711.23
2024-03-25T17:18:58.927Z,99711.65
2024-03-25T17:21:30.031Z,99713.70
2024-03-25T17:23:58.868Z,99717.44
2024-03-25T17:26:29.291Z,99715.98
2024-03-25T17:28:59.590Z,99717.40
2024-03-25T17:31:29.831Z,99713.07
2024-03-25T17:34:00.922Z,99712.54
2024-03-25T17:36:29.816Z,99717.09
2024-03-25T17:39:00.357Z,99722.22
2024-03-25T17:41:30.736Z,99719.02
2024-03-25T17:44:01.200Z,99721.54
2024-03-25T17:46:31.623Z,99727.07
2024-03-25T17:49:02.162Z,99730.02
2024-03-25T17:51:32.607Z,99736.15
2024-03-25T17:54:03.090Z,99733.55
2024-03-25T17:56:33.535Z,99730.48
2024-03-25T17:59:03.796Z,99729.44
2024-03-25T18:01:34.271Z,99728.74
2024-03-25T18:04:06.647Z,99731.14
2024-03-25T18:06:37.227Z,99734.92
2024-03-25T18:09:07.884Z,99734.91
2024-03-25T18:11:48.137Z,99737.27
2024-03-25T18:14:18.700Z,99736.49
2024-03-25T18:16:52.456Z,99735.04
2024-03-25T18:19:23.030Z,99738.36
2024-03-25T18:21:53.458Z,99737.95
2024-03-25T18:24:33.098Z,99741.52
2024-03-25T18:27:08.269Z,99742.36
2024-03-25T18:29:38.577Z,99743.66
2024-03-25T18:32:09.409Z,99742.70
2024-03-25T18:34:40.372Z,99746.55
2024-03-25T18:37:11.332Z,99747.77
2024-03-25T18:39:42.151Z,99751.98
2024-03-25T18:42:12.718Z,99754.23
2024-03-25T18:44:43.236Z,99755.70
2024-03-25T18:47:13.956Z,99755.34
2024-03-25T18:49:44.297Z,99754.56
2024-03-25T18:52:16.056Z,99756.42
2024-03-25T18:54:46.487Z,99756.52
2024-03-25T18:57:17.073Z,99758.41
2024-03-25T18:59:47.526Z,99757.81
2024-03-25T19:02:18.193Z,99759.34
2024-03-25T19:04:49.053Z,99758.40
2024-03-25T19:07:19.438Z,99756.95
2024-03-25T19:09:49.885Z,99760.35
2024-03-25T19:12:20.189Z,99760.55
2024-03-25T19:14:52.911Z,99762.05
2024-03-25T19:17:23.340Z,99760.82
2024-03-25T19:19:53.889Z,99760.95
2024-03-25T19:22:24.602Z,99763.14
2024-03-25T19:24:55.058Z,99758.54
2024-03-25T19:27:25.779Z,99763.05
2024-03-25T19:29:56.256Z,99759.83
2024-03-25T19:32:26.652Z,99764.71
2024-03-25T19:34:56.923Z,99764.39
2024-03-25T19:37:27.387Z,99768.23
2024-03-25T19:39:57.890Z,99766.98
2024-03-25T19:42:28.187Z,99770.40
2024-03-25T19:44:58.768Z,99774.30
2024-03-25T19:47:29.259Z,99774.47
2024-03-25T19:49:59.794Z,99772.52
2024-03-25T19:52:30.204Z,99770.44
2024-03-25T19:55:01.004Z,99768.71
2024-03-25T19:57:31.559Z,99772.95
2024-03-25T20:00:01.760Z,99768.99
2024-03-25T20:02:32.109Z,99772.59
2024-03-25T20:05:02.831Z,99766.95
2024-03-25T20:07:33.303Z,99767.99
2024-03-25T20:10:03.849Z,99769.96
2024-03-25T20:12:33.035Z,99772.98
2024-03-25T20:15:03.732Z,99775.00
2024-03-25T20:17:34.159Z,99777.63
2024-03-25T20:20:06.959Z,99780.44
2024-03-25T20:22:37.394Z,99776.99
2024-03-25T20:25:10.107Z,99778.67
2024-03-25T20:27:40.658Z,99777.71
2024-03-25T20:30:12.764Z,99777.89
2024-03-25T20:32:43.015Z,99778.59
2024-03-25T20:35:13.273Z,99779.06
2024-03-25T20:37:43.759Z,99779.50
2024-03-25T20:40:15.199Z,99782.06
2024-03-25T20:42:46.931Z,99786.75
2024-03-25T20:45:17.510Z,99784.83
2024-03-25T20:47:47.909Z,99786.37
2024-03-25T20:50:18.384Z,99788.34
2024-03-25T20:52:48.787Z,99783.59
2024-03-25T20:55:19.254Z,99786.81
2024-03-25T20:57:49.587Z,99787.41
2024-03-25T21:00:21.251Z,99786.12
2024-03-25T21:02:51.526Z,99782.83
2024-03-25T21:05:21.817Z,99783.91
2024-03-25T21:07:52.179Z,99785.09
2024-03-25T21:10:22.548Z,99788.92
2024-03-25T21:12:53.091Z,99788.58
2024-03-25T21:15:23.745Z,99795.56
2024-03-25T21:17:54.034Z,99794.42
2024-03-25T21:20:24.714Z,99792.85
2024-03-25T21:22:55.222Z,99793.98
2024-03-25T21:25:25.750Z,99797.07
2024-03-25T21:27:56.275Z,99796.23
2024-03-25T21:30:27.240Z,99798.96
2024-03-25T21:32:56.193Z,99800.08
2024-03-25T21:35:33.676Z,99804.10
2024-03-25T21:38:07.359Z,99798.77
2024-03-25T21:40:37.748Z,99807.27
2024-03-25T21:43:08.352Z,99806.34
2024-03-25T21:45:38.742Z,99803.36
2024-03-25T21:48:10.399Z,99801.04
2024-03-25T21:50:40.801Z,99796.73
2024-03-25T21:53:11.034Z,99799.10
2024-03-25T21:55:41.479Z,99802.32
2024-03-25T21:58:11.951Z,99804.56
2024-03-25T22:00:43.434Z,99806.02
2024-03-25T22:03:17.382Z,99809.96
2024-03-25T22:05:47.869Z,99809.47
2024-03-25T22:08:18.762Z,99814.02
2024-03-25T22:10:49.303Z,99812.13
2024-03-25T22:13:19.784Z,99818.38
2024-03-25T22:15:59.840Z,99819.93
2024-03-25T22:18:30.279Z,99827.70
2024-03-25T22:21:03.594Z,99829.08
2024-03-25T22:23:34.247Z,99833.30
2024-03-25T22:26:04.819Z,99836.39
2024-03-25T22:28:35.714Z,99837.20
2024-03-25T22:31:06.225Z,99834.72
2024-03-25T22:33:36.583Z,99832.71
2024-03-25T22:36:08.300Z,99827.14
2024-03-25T22:38:40.584Z,99832.42
2024-03-25T22:41:11.479Z,99830.30
2024-03-25T22:43:42.015Z,99830.98
2024-03-25T22:46:12.293Z,99830.19
2024-03-25T22:48:42.918Z,99827.92
2024-03-25T22:51:15.100Z,99825.38
2024-03-25T22:53:56.928Z,99828.05
2024-03-25T22:56:27.814Z,99826.66
2024-03-25T22:58:58.196Z,99828.54
2024-03-25T23:02:52.750Z,99830.48
2024-03-25T23:05:29.369Z,99832.91
2024-03-25T23:07:59.724Z,99827.49
2024-03-25T23:10:30.232Z,99827.02
2024-03-25T23:13:00.521Z,99825.16
2024-03-25T23:15:30.914Z,99824.27
2024-03-25T23:18:01.327Z,99825.16
2024-03-25T23:20:35.691Z,99830.30
2024-03-25T23:23:06.480Z,99828.81
2024-03-25T23:25:36.708Z,99825.27
2024-03-25T23:28:09.180Z,99830.41
2024-03-25T23:30:40.583Z,99830.45
2024-03-25T23:33:11.070Z,99833.45
2024-03-25T23:35:41.511Z,99833.61
2024-03-25T23:38:12.231Z,99832.17
2024-03-25T23:40:42.686Z,99831.95
2024-03-25T23:43:13.062Z,99829.15
2024-03-25T23:45:44.882Z,99831.87
2024-03-25T23:48:15.277Z,99829.02
2024-03-25T23:50:45.866Z,99827.89
2024-03-25T23:53:16.592Z,99823.33
2024-03-25T23:55:47.223Z,99816.16
2024-03-25T23:58:17.766Z,99815.20
